sensor_id;sensor_type;location;lat;lon;timestamp;P1;durP1;ratioP1;P2;durP2;ratioP2
22995;SDS011;11664;49.774;8.650;2023-03-21T00:00:10;4.15;;;3.80;;
22995;SDS011;11664;49.774;8.650;2023-03-21T00:02:49;5.53;;;5.03;;
22995;SDS011;11664;49.774;8.650;2023-03-21T00:05:15;4.70;;;4.25;;
22995;SDS011;11664;49.774;8.650;2023-03-21T00:07:43;3.78;;;3.47;;
22995;SDS011;11664;49.774;8.650;2023-03-21T00:10:15;4.38;;;3.65;;
22995;SDS011;11664;49.774;8.650;2023-03-21T00:12:40;4.03;;;3.72;;
22995;SDS011;11664;49.774;8.650;2023-03-21T00:15:12;4.20;;;3.65;;
22995;SDS011;11664;49.774;8.650;2023-03-21T00:17:38;6.07;;;3.90;;
22995;SDS011;11664;49.774;8.650;2023-03-21T00:20:04;4.35;;;3.95;;
22995;SDS011;11664;49.774;8.650;2023-03-21T00:22:38;12.98;;;4.43;;
22995;SDS011;11664;49.774;8.650;2023-03-21T00:25:08;4.30;;;4.00;;
22995;SDS011;11664;49.774;8.650;2023-03-21T00:27:37;10.18;;;5.47;;
22995;SDS011;11664;49.774;8.650;2023-03-21T00:30:06;4.40;;;4.10;;
22995;SDS011;11664;49.774;8.650;2023-03-21T00:32:32;4.82;;;4.10;;
22995;SDS011;11664;49.774;8.650;2023-03-21T00:35:04;7.55;;;4.45;;
22995;SDS011;11664;49.774;8.650;2023-03-21T00:37:30;4.57;;;3.78;;
22995;SDS011;11664;49.774;8.650;2023-03-21T00:40:08;5.32;;;3.53;;
22995;SDS011;11664;49.774;8.650;2023-03-21T00:42:34;5.05;;;3.92;;
22995;SDS011;11664;49.774;8.650;2023-03-21T00:45:03;7.88;;;4.60;;
22995;SDS011;11664;49.774;8.650;2023-03-21T00:47:37;5.38;;;4.45;;
22995;SDS011;11664;49.774;8.650;2023-03-21T00:50:03;8.98;;;6.60;;
22995;SDS011;11664;49.774;8.650;2023-03-21T00:52:29;8.70;;;8.13;;
22995;SDS011;11664;49.774;8.650;2023-03-21T00:55:03;8.80;;;8.20;;
22995;SDS011;11664;49.774;8.650;2023-03-21T00:57:30;9.57;;;8.98;;
22995;SDS011;11664;49.774;8.650;2023-03-21T01:00:08;8.38;;;7.88;;
22995;SDS011;11664;49.774;8.650;2023-03-21T01:02:34;7.80;;;7.15;;
22995;SDS011;11664;49.774;8.650;2023-03-21T01:05:01;8.02;;;7.55;;
22995;SDS011;11664;49.774;8.650;2023-03-21T01:08:07;8.63;;;6.57;;
22995;SDS011;11664;49.774;8.650;2023-03-21T01:10:43;6.57;;;6.07;;
22995;SDS011;11664;49.774;8.650;2023-03-21T01:13:10;6.93;;;6.53;;
22995;SDS011;11664;49.774;8.650;2023-03-21T01:15:45;8.40;;;7.70;;
22995;SDS011;11664;49.774;8.650;2023-03-21T01:18:40;7.25;;;6.65;;
22995;SDS011;11664;49.774;8.650;2023-03-21T01:21:13;8.20;;;7.60;;
22995;SDS011;11664;49.774;8.650;2023-03-21T01:23:45;8.80;;;8.18;;
22995;SDS011;11664;49.774;8.650;2023-03-21T01:26:17;9.40;;;8.55;;
22995;SDS011;11664;49.774;8.650;2023-03-21T01:28:51;9.23;;;8.55;;
22995;SDS011;11664;49.774;8.650;2023-03-21T01:31:20;8.35;;;7.85;;
22995;SDS011;11664;49.774;8.650;2023-03-21T01:33:55;9.15;;;8.45;;
22995;SDS011;11664;49.774;8.650;2023-03-21T01:36:22;8.48;;;7.65;;
22995;SDS011;11664;49.774;8.650;2023-03-21T01:38:55;6.22;;;4.13;;
22995;SDS011;11664;49.774;8.650;2023-03-21T01:41:32;8.05;;;4.93;;
22995;SDS011;11664;49.774;8.650;2023-03-21T01:44:09;4.57;;;4.28;;
22995;SDS011;11664;49.774;8.650;2023-03-21T01:46:41;4.53;;;4.13;;
22995;SDS011;11664;49.774;8.650;2023-03-21T01:51:51;4.47;;;3.97;;
22995;SDS011;11664;49.774;8.650;2023-03-21T01:54:23;4.30;;;3.88;;
22995;SDS011;11664;49.774;8.650;2023-03-21T01:56:53;5.10;;;4.18;;
22995;SDS011;11664;49.774;8.650;2023-03-21T01:59:23;5.68;;;3.92;;
22995;SDS011;11664;49.774;8.650;2023-03-21T02:01:59;4.60;;;3.90;;
22995;SDS011;11664;49.774;8.650;2023-03-21T02:04:31;6.45;;;3.85;;
22995;SDS011;11664;49.774;8.650;2023-03-21T02:07:23;5.38;;;3.70;;
22995;SDS011;11664;49.774;8.650;2023-03-21T02:10:10;4.82;;;4.32;;
22995;SDS011;11664;49.774;8.650;2023-03-21T02:12:40;4.75;;;4.47;;
22995;SDS011;11664;49.774;8.650;2023-03-21T02:15:06;4.47;;;4.18;;
22995;SDS011;11664;49.774;8.650;2023-03-21T02:17:44;4.28;;;3.90;;
22995;SDS011;11664;49.774;8.650;2023-03-21T02:26:50;5.20;;;4.70;;
22995;SDS011;11664;49.774;8.650;2023-03-21T02:39:11;10.15;;;6.35;;
22995;SDS011;11664;49.774;8.650;2023-03-21T02:41:48;6.43;;;5.82;;
22995;SDS011;11664;49.774;8.650;2023-03-21T02:44:23;6.35;;;5.38;;
22995;SDS011;11664;49.774;8.650;2023-03-21T02:50:18;7.32;;;4.38;;
22995;SDS011;11664;49.774;8.650;2023-03-21T02:52:52;8.40;;;5.30;;
22995;SDS011;11664;49.774;8.650;2023-03-21T02:55:23;5.05;;;4.65;;
22995;SDS011;11664;49.774;8.650;2023-03-21T02:57:51;5.47;;;4.82;;
22995;SDS011;11664;49.774;8.650;2023-03-21T03:00:21;7.30;;;4.57;;
22995;SDS011;11664;49.774;8.650;2023-03-21T03:02:49;6.78;;;5.00;;
22995;SDS011;11664;49.774;8.650;2023-03-21T03:05:20;4.85;;;4.38;;
22995;SDS011;11664;49.774;8.650;2023-03-21T03:19:21;4.57;;;4.18;;
22995;SDS011;11664;49.774;8.650;2023-03-21T03:22:01;7.13;;;4.70;;
22995;SDS011;11664;49.774;8.650;2023-03-21T03:24:37;4.57;;;4.18;;
22995;SDS011;11664;49.774;8.650;2023-03-21T03:27:18;5.40;;;4.30;;
22995;SDS011;11664;49.774;8.650;2023-03-21T03:29:51;5.00;;;4.50;;
22995;SDS011;11664;49.774;8.650;2023-03-21T03:32:39;5.53;;;5.13;;
22995;SDS011;11664;49.774;8.650;2023-03-21T03:35:22;5.32;;;4.72;;
22995;SDS011;11664;49.774;8.650;2023-03-21T03:37:53;6.35;;;5.05;;
22995;SDS011;11664;49.774;8.650;2023-03-21T03:40:26;6.00;;;5.40;;
22995;SDS011;11664;49.774;8.650;2023-03-21T03:42:56;6.43;;;5.82;;
22995;SDS011;11664;49.774;8.650;2023-03-21T03:48:51;5.80;;;5.30;;
22995;SDS011;11664;49.774;8.650;2023-03-21T03:51:20;8.65;;;6.10;;
22995;SDS011;11664;49.774;8.650;2023-03-21T03:54:06;7.72;;;6.05;;
22995;SDS011;11664;49.774;8.650;2023-03-21T03:56:41;14.90;;;6.38;;
22995;SDS011;11664;49.774;8.650;2023-03-21T03:59:07;6.40;;;5.90;;
22995;SDS011;11664;49.774;8.650;2023-03-21T04:01:39;6.22;;;5.65;;
22995;SDS011;11664;49.774;8.650;2023-03-21T04:04:31;5.97;;;5.10;;
22995;SDS011;11664;49.774;8.650;2023-03-21T04:06:57;6.28;;;5.65;;
22995;SDS011;11664;49.774;8.650;2023-03-21T04:09:33;7.78;;;5.38;;
22995;SDS011;11664;49.774;8.650;2023-03-21T04:12:05;7.07;;;4.75;;
22995;SDS011;11664;49.774;8.650;2023-03-21T04:14:34;5.30;;;4.80;;
22995;SDS011;11664;49.774;8.650;2023-03-21T04:16:59;6.10;;;5.53;;
22995;SDS011;11664;49.774;8.650;2023-03-21T04:19:28;7.15;;;6.47;;
22995;SDS011;11664;49.774;8.650;2023-03-21T04:22:06;5.90;;;5.13;;
22995;SDS011;11664;49.774;8.650;2023-03-21T04:24:31;5.55;;;5.10;;
22995;SDS011;11664;49.774;8.650;2023-03-21T04:26:58;7.35;;;6.65;;
22995;SDS011;11664;49.774;8.650;2023-03-21T04:29:36;11.23;;;7.65;;
22995;SDS011;11664;49.774;8.650;2023-03-21T04:32:04;7.60;;;6.82;;
22995;SDS011;11664;49.774;8.650;2023-03-21T04:34:40;7.22;;;6.53;;
22995;SDS011;11664;49.774;8.650;2023-03-21T04:37:20;6.47;;;5.93;;
22995;SDS011;11664;49.774;8.650;2023-03-21T04:39:50;10.30;;;6.10;;
22995;SDS011;11664;49.774;8.650;2023-03-21T04:42:16;7.18;;;6.57;;
22995;SDS011;11664;49.774;8.650;2023-03-21T04:44:54;7.55;;;5.75;;
22995;SDS011;11664;49.774;8.650;2023-03-21T04:47:20;7.32;;;5.97;;
22995;SDS011;11664;49.774;8.650;2023-03-21T04:49:45;6.28;;;5.78;;
22995;SDS011;11664;49.774;8.650;2023-03-21T04:52:17;7.03;;;5.60;;
22995;SDS011;11664;49.774;8.650;2023-03-21T04:54:48;8.10;;;5.45;;
22995;SDS011;11664;49.774;8.650;2023-03-21T04:57:20;8.05;;;7.20;;
22995;SDS011;11664;49.774;8.650;2023-03-21T04:59:45;7.03;;;6.50;;
22995;SDS011;11664;49.774;8.650;2023-03-21T05:02:18;13.25;;;11.98;;
22995;SDS011;11664;49.774;8.650;2023-03-21T05:04:50;14.15;;;13.05;;
22995;SDS011;11664;49.774;8.650;2023-03-21T05:07:19;11.68;;;10.70;;
22995;SDS011;11664;49.774;8.650;2023-03-21T05:09:53;11.02;;;10.15;;
22995;SDS011;11664;49.774;8.650;2023-03-21T05:12:24;13.50;;;12.50;;
22995;SDS011;11664;49.774;8.650;2023-03-21T05:14:50;12.30;;;11.40;;
22995;SDS011;11664;49.774;8.650;2023-03-21T05:17:15;9.98;;;8.68;;
22995;SDS011;11664;49.774;8.650;2023-03-21T05:19:49;8.55;;;7.80;;
22995;SDS011;11664;49.774;8.650;2023-03-21T05:22:17;8.77;;;7.97;;
22995;SDS011;11664;49.774;8.650;2023-03-21T05:24:49;8.38;;;7.55;;
22995;SDS011;11664;49.774;8.650;2023-03-21T05:27:27;10.55;;;7.40;;
22995;SDS011;11664;49.774;8.650;2023-03-21T05:30:16;5.88;;;5.40;;
22995;SDS011;11664;49.774;8.650;2023-03-21T05:32:42;7.95;;;5.65;;
22995;SDS011;11664;49.774;8.650;2023-03-21T05:35:08;6.97;;;5.57;;
22995;SDS011;11664;49.774;8.650;2023-03-21T05:37:52;7.32;;;6.00;;
22995;SDS011;11664;49.774;8.650;2023-03-21T05:40:21;7.20;;;6.57;;
22995;SDS011;11664;49.774;8.650;2023-03-21T05:42:50;7.60;;;7.00;;
22995;SDS011;11664;49.774;8.650;2023-03-21T05:45:18;8.75;;;6.75;;
22995;SDS011;11664;49.774;8.650;2023-03-21T05:47:50;8.75;;;7.18;;
22995;SDS011;11664;49.774;8.650;2023-03-21T05:50:21;9.02;;;6.93;;
22995;SDS011;11664;49.774;8.650;2023-03-21T05:52:49;9.50;;;8.60;;
22995;SDS011;11664;49.774;8.650;2023-03-21T05:55:18;9.40;;;6.28;;
22995;SDS011;11664;49.774;8.650;2023-03-21T05:57:49;8.13;;;6.43;;
22995;SDS011;11664;49.774;8.650;2023-03-21T06:00:15;6.43;;;5.82;;
22995;SDS011;11664;49.774;8.650;2023-03-21T06:02:45;11.63;;;6.88;;
22995;SDS011;11664;49.774;8.650;2023-03-21T06:05:10;6.85;;;4.95;;
22995;SDS011;11664;49.774;8.650;2023-03-21T06:07:42;7.90;;;6.15;;
22995;SDS011;11664;49.774;8.650;2023-03-21T06:10:07;5.47;;;5.07;;
22995;SDS011;11664;49.774;8.650;2023-03-21T06:12:33;5.50;;;4.97;;
22995;SDS011;11664;49.774;8.650;2023-03-21T06:15:03;5.70;;;4.40;;
22995;SDS011;11664;49.774;8.650;2023-03-21T06:17:34;5.30;;;4.32;;
22995;SDS011;11664;49.774;8.650;2023-03-21T06:19:59;5.35;;;4.50;;
22995;SDS011;11664;49.774;8.650;2023-03-21T06:22:25;5.35;;;4.78;;
22995;SDS011;11664;49.774;8.650;2023-03-21T06:24:51;7.85;;;4.80;;
22995;SDS011;11664;49.774;8.650;2023-03-21T06:27:20;9.43;;;4.35;;
22995;SDS011;11664;49.774;8.650;2023-03-21T06:29:52;4.85;;;4.35;;
22995;SDS011;11664;49.774;8.650;2023-03-21T06:32:17;8.10;;;4.80;;
22995;SDS011;11664;49.774;8.650;2023-03-21T06:34:46;7.07;;;5.60;;
22995;SDS011;11664;49.774;8.650;2023-03-21T06:37:18;5.38;;;4.80;;
22995;SDS011;11664;49.774;8.650;2023-03-21T06:39:55;6.53;;;5.55;;
22995;SDS011;11664;49.774;8.650;2023-03-21T06:42:21;7.38;;;5.13;;
22995;SDS011;11664;49.774;8.650;2023-03-21T06:44:49;6.63;;;4.68;;
22995;SDS011;11664;49.774;8.650;2023-03-21T06:47:15;5.43;;;4.93;;
22995;SDS011;11664;49.774;8.650;2023-03-21T06:49:40;6.13;;;4.95;;
22995;SDS011;11664;49.774;8.650;2023-03-21T06:52:07;6.00;;;5.43;;
22995;SDS011;11664;49.774;8.650;2023-03-21T06:54:36;6.43;;;5.47;;
22995;SDS011;11664;49.774;8.650;2023-03-21T06:57:02;8.68;;;7.88;;
22995;SDS011;11664;49.774;8.650;2023-03-21T06:59:27;9.48;;;8.57;;
22995;SDS011;11664;49.774;8.650;2023-03-21T07:01:59;8.75;;;7.72;;
22995;SDS011;11664;49.774;8.650;2023-03-21T07:04:28;7.88;;;7.18;;
22995;SDS011;11664;49.774;8.650;2023-03-21T07:07:06;9.43;;;8.68;;
22995;SDS011;11664;49.774;8.650;2023-03-21T07:09:34;8.68;;;8.07;;
22995;SDS011;11664;49.774;8.650;2023-03-21T07:12:06;6.90;;;6.07;;
22995;SDS011;11664;49.774;8.650;2023-03-21T07:14:38;7.30;;;5.93;;
22995;SDS011;11664;49.774;8.650;2023-03-21T07:17:12;5.75;;;5.25;;
22995;SDS011;11664;49.774;8.650;2023-03-21T07:19:37;5.43;;;4.93;;
22995;SDS011;11664;49.774;8.650;2023-03-21T07:22:03;7.32;;;4.70;;
22995;SDS011;11664;49.774;8.650;2023-03-21T07:24:28;4.90;;;4.45;;
22995;SDS011;11664;49.774;8.650;2023-03-21T07:26:57;4.75;;;4.28;;
22995;SDS011;11664;49.774;8.650;2023-03-21T07:29:22;7.07;;;5.97;;
22995;SDS011;11664;49.774;8.650;2023-03-21T07:31:57;6.32;;;5.82;;
22995;SDS011;11664;49.774;8.650;2023-03-21T07:34:25;8.10;;;7.35;;
22995;SDS011;11664;49.774;8.650;2023-03-21T07:36:55;8.25;;;7.65;;
22995;SDS011;11664;49.774;8.650;2023-03-21T07:39:21;9.23;;;8.63;;
22995;SDS011;11664;49.774;8.650;2023-03-21T07:41:53;8.48;;;7.72;;
22995;SDS011;11664;49.774;8.650;2023-03-21T07:44:28;8.32;;;7.72;;
22995;SDS011;11664;49.774;8.650;2023-03-21T07:47:00;9.52;;;8.52;;
22995;SDS011;11664;49.774;8.650;2023-03-21T07:49:32;11.55;;;10.77;;
22995;SDS011;11664;49.774;8.650;2023-03-21T07:52:15;9.65;;;8.90;;
22995;SDS011;11664;49.774;8.650;2023-03-21T07:54:44;10.02;;;9.13;;
22995;SDS011;11664;49.774;8.650;2023-03-21T07:57:09;9.68;;;8.50;;
22995;SDS011;11664;49.774;8.650;2023-03-21T07:59:35;10.60;;;9.68;;
22995;SDS011;11664;49.774;8.650;2023-03-21T08:02:14;8.45;;;7.82;;
22995;SDS011;11664;49.774;8.650;2023-03-21T08:04:40;8.38;;;7.68;;
22995;SDS011;11664;49.774;8.650;2023-03-21T08:07:09;9.15;;;8.35;;
22995;SDS011;11664;49.774;8.650;2023-03-21T08:09:38;7.95;;;7.15;;
22995;SDS011;11664;49.774;8.650;2023-03-21T08:12:07;8.88;;;8.02;;
22995;SDS011;11664;49.774;8.650;2023-03-21T08:14:34;8.82;;;7.95;;
22995;SDS011;11664;49.774;8.650;2023-03-21T08:17:00;7.65;;;6.93;;
22995;SDS011;11664;49.774;8.650;2023-03-21T08:19:33;7.53;;;6.63;;
22995;SDS011;11664;49.774;8.650;2023-03-21T08:22:02;6.85;;;5.35;;
22995;SDS011;11664;49.774;8.650;2023-03-21T08:24:33;10.52;;;7.03;;
22995;SDS011;11664;49.774;8.650;2023-03-21T08:27:05;8.48;;;7.70;;
22995;SDS011;11664;49.774;8.650;2023-03-21T08:29:34;8.18;;;5.38;;
22995;SDS011;11664;49.774;8.650;2023-03-21T08:32:07;6.70;;;5.60;;
22995;SDS011;11664;49.774;8.650;2023-03-21T08:34:33;9.80;;;8.65;;
22995;SDS011;11664;49.774;8.650;2023-03-21T08:36:59;17.30;;;9.90;;
22995;SDS011;11664;49.774;8.650;2023-03-21T08:39:31;10.00;;;9.07;;
22995;SDS011;11664;49.774;8.650;2023-03-21T08:41:56;9.40;;;8.65;;
22995;SDS011;11664;49.774;8.650;2023-03-21T08:44:22;10.73;;;10.02;;
22995;SDS011;11664;49.774;8.650;2023-03-21T08:46:49;13.70;;;12.80;;
22995;SDS011;11664;49.774;8.650;2023-03-21T08:49:20;10.75;;;9.85;;
22995;SDS011;11664;49.774;8.650;2023-03-21T08:51:54;9.40;;;8.52;;
22995;SDS011;11664;49.774;8.650;2023-03-21T08:54:23;9.90;;;7.03;;
22995;SDS011;11664;49.774;8.650;2023-03-21T08:56:51;7.40;;;6.57;;
22995;SDS011;11664;49.774;8.650;2023-03-21T08:59:22;6.28;;;5.15;;
22995;SDS011;11664;49.774;8.650;2023-03-21T09:01:48;7.90;;;4.80;;
22995;SDS011;11664;49.774;8.650;2023-03-21T09:04:20;7.55;;;4.93;;
22995;SDS011;11664;49.774;8.650;2023-03-21T09:06:45;8.80;;;4.93;;
22995;SDS011;11664;49.774;8.650;2023-03-21T09:09:18;7.05;;;4.93;;
22995;SDS011;11664;49.774;8.650;2023-03-21T09:11:48;7.15;;;5.47;;
22995;SDS011;11664;49.774;8.650;2023-03-21T09:14:16;6.60;;;6.00;;
22995;SDS011;11664;49.774;8.650;2023-03-21T09:16:45;6.72;;;5.47;;
22995;SDS011;11664;49.774;8.650;2023-03-21T09:19:14;6.13;;;5.63;;
22995;SDS011;11664;49.774;8.650;2023-03-21T09:21:46;6.07;;;5.57;;
22995;SDS011;11664;49.774;8.650;2023-03-21T09:24:11;6.47;;;4.75;;
22995;SDS011;11664;49.774;8.650;2023-03-21T09:26:43;5.70;;;5.18;;
22995;SDS011;11664;49.774;8.650;2023-03-21T09:29:12;5.40;;;4.53;;
22995;SDS011;11664;49.774;8.650;2023-03-21T09:31:42;6.80;;;6.20;;
22995;SDS011;11664;49.774;8.650;2023-03-21T09:34:08;6.82;;;5.40;;
22995;SDS011;11664;49.774;8.650;2023-03-21T09:36:34;7.93;;;5.47;;
22995;SDS011;11664;49.774;8.650;2023-03-21T09:39:09;5.65;;;5.15;;
22995;SDS011;11664;49.774;8.650;2023-03-21T09:41:51;8.30;;;5.95;;
22995;SDS011;11664;49.774;8.650;2023-03-21T09:44:38;6.72;;;6.05;;
22995;SDS011;11664;49.774;8.650;2023-03-21T09:49:52;6.97;;;5.35;;
22995;SDS011;11664;49.774;8.650;2023-03-21T09:52:31;7.35;;;5.55;;
22995;SDS011;11664;49.774;8.650;2023-03-21T09:55:35;7.25;;;5.68;;
22995;SDS011;11664;49.774;8.650;2023-03-21T10:00:57;5.28;;;4.78;;
22995;SDS011;11664;49.774;8.650;2023-03-21T10:04:01;7.30;;;5.07;;
22995;SDS011;11664;49.774;8.650;2023-03-21T10:06:29;7.30;;;4.60;;
22995;SDS011;11664;49.774;8.650;2023-03-21T10:09:07;7.75;;;4.45;;
22995;SDS011;11664;49.774;8.650;2023-03-21T10:11:42;5.28;;;4.25;;
22995;SDS011;11664;49.774;8.650;2023-03-21T10:14:29;6.28;;;4.65;;
22995;SDS011;11664;49.774;8.650;2023-03-21T10:17:00;7.03;;;4.68;;
22995;SDS011;11664;49.774;8.650;2023-03-21T10:22:48;5.43;;;4.40;;
22995;SDS011;11664;49.774;8.650;2023-03-21T10:25:20;4.85;;;4.45;;
22995;SDS011;11664;49.774;8.650;2023-03-21T10:27:50;7.90;;;5.03;;
22995;SDS011;11664;49.774;8.650;2023-03-21T10:33:13;5.05;;;4.50;;
22995;SDS011;11664;49.774;8.650;2023-03-21T10:35:45;9.88;;;5.13;;
22995;SDS011;11664;49.774;8.650;2023-03-21T10:38:24;7.60;;;4.88;;
22995;SDS011;11664;49.774;8.650;2023-03-21T10:40:50;9.50;;;6.07;;
22995;SDS011;11664;49.774;8.650;2023-03-21T10:45:58;7.55;;;5.60;;
22995;SDS011;11664;49.774;8.650;2023-03-21T10:48:33;7.32;;;4.60;;
22995;SDS011;11664;49.774;8.650;2023-03-21T10:51:05;5.22;;;4.43;;
22995;SDS011;11664;49.774;8.650;2023-03-21T10:56:44;7.45;;;5.45;;
22995;SDS011;11664;49.774;8.650;2023-03-21T11:02:39;10.13;;;6.35;;
22995;SDS011;11664;49.774;8.650;2023-03-21T11:05:39;6.57;;;5.45;;
22995;SDS011;11664;49.774;8.650;2023-03-21T11:08:11;6.00;;;5.18;;
22995;SDS011;11664;49.774;8.650;2023-03-21T11:13:33;6.18;;;4.93;;
22995;SDS011;11664;49.774;8.650;2023-03-21T11:22:14;5.28;;;4.40;;
22995;SDS011;11664;49.774;8.650;2023-03-21T11:24:45;4.45;;;3.92;;
22995;SDS011;11664;49.774;8.650;2023-03-21T11:27:34;4.50;;;4.10;;
22995;SDS011;11664;49.774;8.650;2023-03-21T11:30:00;4.40;;;4.10;;
22995;SDS011;11664;49.774;8.650;2023-03-21T11:32:35;5.05;;;4.57;;
22995;SDS011;11664;49.774;8.650;2023-03-21T11:35:18;4.97;;;4.35;;
22995;SDS011;11664;49.774;8.650;2023-03-21T11:37:49;7.63;;;6.25;;
22995;SDS011;11664;49.774;8.650;2023-03-21T11:45:33;7.25;;;6.10;;
22995;SDS011;11664;49.774;8.650;2023-03-21T11:48:18;8.15;;;7.25;;
22995;SDS011;11664;49.774;8.650;2023-03-21T11:50:50;8.30;;;7.63;;
22995;SDS011;11664;49.774;8.650;2023-03-21T11:56:37;6.60;;;6.00;;
22995;SDS011;11664;49.774;8.650;2023-03-21T12:05:36;7.28;;;6.78;;
22995;SDS011;11664;49.774;8.650;2023-03-21T12:08:15;8.57;;;7.85;;
22995;SDS011;11664;49.774;8.650;2023-03-21T12:11:15;7.68;;;5.68;;
22995;SDS011;11664;49.774;8.650;2023-03-21T12:17:02;7.10;;;6.32;;
22995;SDS011;11664;49.774;8.650;2023-03-21T12:19:47;7.88;;;6.07;;
22995;SDS011;11664;49.774;8.650;2023-03-21T12:28:03;11.57;;;9.02;;
22995;SDS011;11664;49.774;8.650;2023-03-21T12:30:56;9.23;;;8.43;;
22995;SDS011;11664;49.774;8.650;2023-03-21T12:39:34;10.75;;;9.73;;
22995;SDS011;11664;49.774;8.650;2023-03-21T12:45:16;9.68;;;5.85;;
22995;SDS011;11664;49.774;8.650;2023-03-21T12:47:52;7.20;;;6.47;;
22995;SDS011;11664;49.774;8.650;2023-03-21T12:50:30;8.60;;;5.00;;
22995;SDS011;11664;49.774;8.650;2023-03-21T12:56:06;8.15;;;5.78;;
22995;SDS011;11664;49.774;8.650;2023-03-21T12:58:57;17.00;;;15.75;;
22995;SDS011;11664;49.774;8.650;2023-03-21T13:01:38;10.05;;;9.00;;
22995;SDS011;11664;49.774;8.650;2023-03-21T13:07:16;7.20;;;6.57;;
22995;SDS011;11664;49.774;8.650;2023-03-21T13:09:47;6.70;;;6.07;;
22995;SDS011;11664;49.774;8.650;2023-03-21T13:17:49;6.55;;;4.88;;
22995;SDS011;11664;49.774;8.650;2023-03-21T13:20:33;5.43;;;4.68;;
22995;SDS011;11664;49.774;8.650;2023-03-21T13:23:07;6.03;;;4.80;;
22995;SDS011;11664;49.774;8.650;2023-03-21T13:25:40;5.22;;;4.60;;
22995;SDS011;11664;49.774;8.650;2023-03-21T13:28:22;6.75;;;6.05;;
22995;SDS011;11664;49.774;8.650;2023-03-21T13:33:44;7.32;;;5.70;;
22995;SDS011;11664;49.774;8.650;2023-03-21T13:36:26;6.95;;;5.72;;
22995;SDS011;11664;49.774;8.650;2023-03-21T13:38:53;6.05;;;5.63;;
22995;SDS011;11664;49.774;8.650;2023-03-21T13:41:28;7.07;;;4.88;;
22995;SDS011;11664;49.774;8.650;2023-03-21T13:46:35;6.40;;;5.90;;
22995;SDS011;11664;49.774;8.650;2023-03-21T13:51:41;10.38;;;9.60;;
22995;SDS011;11664;49.774;8.650;2023-03-21T13:56:49;17.58;;;16.33;;
22995;SDS011;11664;49.774;8.650;2023-03-21T14:07:47;15.02;;;13.85;;
22995;SDS011;11664;49.774;8.650;2023-03-21T14:13:04;17.70;;;16.45;;
22995;SDS011;11664;49.774;8.650;2023-03-21T14:15:38;15.65;;;14.45;;
22995;SDS011;11664;49.774;8.650;2023-03-21T14:18:06;11.90;;;11.07;;
22995;SDS011;11664;49.774;8.650;2023-03-21T14:20:33;16.15;;;14.75;;
22995;SDS011;11664;49.774;8.650;2023-03-21T14:23:05;13.23;;;12.25;;
22995;SDS011;11664;49.774;8.650;2023-03-21T14:25:52;13.55;;;12.63;;
22995;SDS011;11664;49.774;8.650;2023-03-21T14:28:45;11.95;;;11.05;;
22995;SDS011;11664;49.774;8.650;2023-03-21T14:31:14;10.77;;;9.93;;
22995;SDS011;11664;49.774;8.650;2023-03-21T14:33:46;9.45;;;8.65;;
22995;SDS011;11664;49.774;8.650;2023-03-21T14:36:22;6.32;;;5.78;;
22995;SDS011;11664;49.774;8.650;2023-03-21T14:39:06;9.43;;;8.77;;
22995;SDS011;11664;49.774;8.650;2023-03-21T14:41:52;10.82;;;10.02;;
22995;SDS011;11664;49.774;8.650;2023-03-21T14:44:36;14.88;;;13.85;;
22995;SDS011;11664;49.774;8.650;2023-03-21T14:47:19;19.48;;;18.20;;
22995;SDS011;11664;49.774;8.650;2023-03-21T14:49:52;7.82;;;7.15;;
22995;SDS011;11664;49.774;8.650;2023-03-21T14:52:31;9.55;;;8.20;;
22995;SDS011;11664;49.774;8.650;2023-03-21T14:55:01;7.68;;;6.97;;
22995;SDS011;11664;49.774;8.650;2023-03-21T14:57:46;7.15;;;6.45;;
22995;SDS011;11664;49.774;8.650;2023-03-21T15:00:28;8.00;;;7.20;;
22995;SDS011;11664;49.774;8.650;2023-03-21T15:02:56;8.20;;;7.30;;
22995;SDS011;11664;49.774;8.650;2023-03-21T15:05:35;7.50;;;5.55;;
22995;SDS011;11664;49.774;8.650;2023-03-21T15:13:52;7.95;;;7.22;;
22995;SDS011;11664;49.774;8.650;2023-03-21T15:16:20;11.05;;;8.00;;
22995;SDS011;11664;49.774;8.650;2023-03-21T15:18:46;8.32;;;7.53;;
22995;SDS011;11664;49.774;8.650;2023-03-21T15:21:20;9.05;;;8.23;;
22995;SDS011;11664;49.774;8.650;2023-03-21T15:24:12;9.90;;;9.00;;
22995;SDS011;11664;49.774;8.650;2023-03-21T15:26:48;7.78;;;6.95;;
22995;SDS011;11664;49.774;8.650;2023-03-21T15:29:15;7.78;;;6.97;;
22995;SDS011;11664;49.774;8.650;2023-03-21T15:31:46;7.35;;;5.85;;
22995;SDS011;11664;49.774;8.650;2023-03-21T15:37:12;8.68;;;7.95;;
22995;SDS011;11664;49.774;8.650;2023-03-21T15:43:20;7.57;;;6.88;;
22995;SDS011;11664;49.774;8.650;2023-03-21T15:45:53;6.70;;;6.10;;
22995;SDS011;11664;49.774;8.650;2023-03-21T15:48:20;7.82;;;6.95;;
22995;SDS011;11664;49.774;8.650;2023-03-21T15:51:03;6.95;;;6.25;;
22995;SDS011;11664;49.774;8.650;2023-03-21T15:53:36;7.20;;;6.65;;
22995;SDS011;11664;49.774;8.650;2023-03-21T15:56:09;7.50;;;6.80;;
22995;SDS011;11664;49.774;8.650;2023-03-21T15:58:43;7.45;;;6.75;;
22995;SDS011;11664;49.774;8.650;2023-03-21T16:01:18;6.88;;;6.28;;
22995;SDS011;11664;49.774;8.650;2023-03-21T16:04:08;6.45;;;6.00;;
22995;SDS011;11664;49.774;8.650;2023-03-21T16:06:37;6.57;;;5.78;;
22995;SDS011;11664;49.774;8.650;2023-03-21T16:09:20;11.55;;;10.65;;
22995;SDS011;11664;49.774;8.650;2023-03-21T16:11:51;8.38;;;7.55;;
22995;SDS011;11664;49.774;8.650;2023-03-21T16:14:20;9.80;;;9.10;;
22995;SDS011;11664;49.774;8.650;2023-03-21T16:16:47;8.13;;;7.32;;
22995;SDS011;11664;49.774;8.650;2023-03-21T16:19:13;7.97;;;6.75;;
22995;SDS011;11664;49.774;8.650;2023-03-21T16:21:45;9.32;;;6.22;;
22995;SDS011;11664;49.774;8.650;2023-03-21T16:24:11;11.70;;;6.60;;
22995;SDS011;11664;49.774;8.650;2023-03-21T16:29:23;7.85;;;7.05;;
22995;SDS011;11664;49.774;8.650;2023-03-21T16:31:54;6.88;;;6.15;;
22995;SDS011;11664;49.774;8.650;2023-03-21T16:34:26;6.10;;;5.60;;
22995;SDS011;11664;49.774;8.650;2023-03-21T16:36:52;12.57;;;6.88;;
22995;SDS011;11664;49.774;8.650;2023-03-21T16:39:21;9.27;;;8.20;;
22995;SDS011;11664;49.774;8.650;2023-03-21T16:41:56;10.88;;;9.88;;
22995;SDS011;11664;49.774;8.650;2023-03-21T16:46:54;9.80;;;7.47;;
22995;SDS011;11664;49.774;8.650;2023-03-21T16:49:25;9.98;;;9.10;;
22995;SDS011;11664;49.774;8.650;2023-03-21T16:51:55;7.13;;;6.50;;
22995;SDS011;11664;49.774;8.650;2023-03-21T16:54:22;12.55;;;11.65;;
22995;SDS011;11664;49.774;8.650;2023-03-21T16:56:49;7.53;;;6.65;;
22995;SDS011;11664;49.774;8.650;2023-03-21T16:59:23;6.47;;;5.95;;
22995;SDS011;11664;49.774;8.650;2023-03-21T17:01:48;6.75;;;5.75;;
22995;SDS011;11664;49.774;8.650;2023-03-21T17:04:20;7.18;;;6.65;;
22995;SDS011;11664;49.774;8.650;2023-03-21T17:06:52;6.68;;;5.63;;
22995;SDS011;11664;49.774;8.650;2023-03-21T17:09:24;7.35;;;6.38;;
22995;SDS011;11664;49.774;8.650;2023-03-21T17:11:58;6.32;;;5.72;;
22995;SDS011;11664;49.774;8.650;2023-03-21T17:14:23;5.10;;;4.70;;
22995;SDS011;11664;49.774;8.650;2023-03-21T17:19:49;6.93;;;6.32;;
22995;SDS011;11664;49.774;8.650;2023-03-21T17:22:24;5.90;;;5.32;;
22995;SDS011;11664;49.774;8.650;2023-03-21T17:24:50;6.30;;;5.70;;
22995;SDS011;11664;49.774;8.650;2023-03-21T17:27:15;7.45;;;6.85;;
22995;SDS011;11664;49.774;8.650;2023-03-21T17:29:42;5.80;;;5.40;;
22995;SDS011;11664;49.774;8.650;2023-03-21T17:32:11;6.05;;;5.47;;
22995;SDS011;11664;49.774;8.650;2023-03-21T17:34:38;5.72;;;5.22;;
22995;SDS011;11664;49.774;8.650;2023-03-21T17:37:03;5.97;;;4.80;;
22995;SDS011;11664;49.774;8.650;2023-03-21T17:39:35;5.47;;;4.82;;
22995;SDS011;11664;49.774;8.650;2023-03-21T17:42:04;5.68;;;5.18;;
22995;SDS011;11664;49.774;8.650;2023-03-21T17:44:41;5.85;;;4.72;;
22995;SDS011;11664;49.774;8.650;2023-03-21T17:47:22;5.50;;;5.00;;
22995;SDS011;11664;49.774;8.650;2023-03-21T17:52:52;7.40;;;6.88;;